createdAt,value
2018-08-23T00:00:45.944Z,20.30
2018-08-23T00:03:19.542Z,20.30
2018-08-23T00:05:50.998Z,20.30
2018-08-23T00:08:19.393Z,20.30
2018-08-23T00:10:48.167Z,20.20
2018-08-23T00:13:16.269Z,20.20
2018-08-23T00:15:44.315Z,20.20
2018-08-23T00:18:12.374Z,20.20
2018-08-23T00:20:40.429Z,20.20
2018-08-23T00:23:08.823Z,20.10
2018-08-23T00:25:37.610Z,20.10
2018-08-23T00:30:42.403Z,20.10
2018-08-23T00:33:10.507Z,20.10
2018-08-23T00:35:39.037Z,20.10
2018-08-23T00:38:07.823Z,20.10
2018-08-23T00:40:40.604Z,20.10
2018-08-23T00:43:09.828Z,20.00
2018-08-23T00:45:37.945Z,20.00
2018-08-23T00:48:06.187Z,19.90
2018-08-23T00:50:50.933Z,19.90
2018-08-23T00:53:19.306Z,19.80
2018-08-23T00:55:47.339Z,19.90
2018-08-23T00:58:15.475Z,19.80
2018-08-23T01:00:46.877Z,19.90
2018-08-23T01:03:15.066Z,19.90
2018-08-23T01:05:43.100Z,19.90
2018-08-23T01:08:11.282Z,19.80
2018-08-23T01:10:40.203Z,19.80
2018-08-23T01:13:08.258Z,19.90
2018-08-23T01:15:36.317Z,19.90
2018-08-23T01:18:11.504Z,19.80
2018-08-23T01:20:40.573Z,19.80
2018-08-23T01:23:08.964Z,19.80
2018-08-23T01:25:40.200Z,19.80
2018-08-23T01:28:08.694Z,19.80
2018-08-23T01:30:37.261Z,19.80
2018-08-23T01:33:05.559Z,19.80
2018-08-23T01:35:33.605Z,19.70
2018-08-23T01:38:01.673Z,19.80
2018-08-23T01:40:29.725Z,19.80
2018-08-23T01:42:57.787Z,19.70
2018-08-23T01:45:25.826Z,19.60
2018-08-23T01:47:55.217Z,19.50
2018-08-23T01:50:23.783Z,19.40
2018-08-23T01:52:52.952Z,19.40
2018-08-23T01:55:22.083Z,19.30
2018-08-23T01:57:50.593Z,19.20
2018-08-23T02:00:24.886Z,19.10
2018-08-23T02:02:52.943Z,19.10
2018-08-23T02:05:21.003Z,19.00
2018-08-23T02:07:49.066Z,19.00
2018-08-23T02:10:17.154Z,18.90
2018-08-23T02:12:52.666Z,18.90
2018-08-23T02:15:21.121Z,18.80
2018-08-23T02:17:52.535Z,18.80
2018-08-23T02:20:20.958Z,18.80
2018-08-23T02:22:49.097Z,18.80
2018-08-23T02:25:17.179Z,18.80
2018-08-23T02:28:05.467Z,18.80
2018-08-23T02:30:41.275Z,18.70
2018-08-23T02:33:10.503Z,18.70
2018-08-23T02:35:38.709Z,18.70
2018-08-23T02:38:07.351Z,18.60
2018-08-23T02:40:36.449Z,18.60
2018-08-23T02:43:04.637Z,18.60
2018-08-23T02:45:38.354Z,18.70
2018-08-23T02:48:07.271Z,18.70
2018-08-23T02:50:35.549Z,18.70
2018-08-23T02:53:13.690Z,18.80
2018-08-23T02:55:46.110Z,18.80
2018-08-23T02:58:14.262Z,18.80
2018-08-23T03:00:45.340Z,18.80
2018-08-23T03:03:13.553Z,18.80
2018-08-23T03:05:41.594Z,18.70
2018-08-23T03:08:09.681Z,18.70
2018-08-23T03:10:37.726Z,18.70
2018-08-23T03:13:05.796Z,18.70
2018-08-23T03:15:33.846Z,18.60
2018-08-23T03:18:03.664Z,18.60
2018-08-23T03:20:32.100Z,18.60
2018-08-23T03:23:00.159Z,18.60
2018-08-23T03:25:28.221Z,18.70
2018-08-23T03:27:56.409Z,18.60
2018-08-23T03:30:24.901Z,18.70
2018-08-23T03:32:52.950Z,18.60
2018-08-23T03:35:21.059Z,18.60
2018-08-23T03:37:49.122Z,18.60
2018-08-23T03:40:17.685Z,18.60
2018-08-23T03:42:45.750Z,18.60
2018-08-23T03:45:19.426Z,18.60
2018-08-23T03:47:51.233Z,18.60
2018-08-23T03:50:19.547Z,18.60
2018-08-23T03:52:48.822Z,18.60
2018-08-23T03:55:17.331Z,18.60
2018-08-23T03:57:51.193Z,18.60
2018-08-23T04:00:24.204Z,18.60
2018-08-23T04:02:52.310Z,18.60
2018-08-23T04:05:20.650Z,18.50
2018-08-23T04:07:48.688Z,18.60
2018-08-23T04:10:16.753Z,18.60
2018-08-23T04:12:44.990Z,18.60
2018-08-23T04:15:19.200Z,18.70
2018-08-23T04:17:48.094Z,18.70
2018-08-23T04:20:16.242Z,18.70
2018-08-23T04:22:44.428Z,18.70
2018-08-23T04:25:12.484Z,18.70
2018-08-23T04:27:40.558Z,18.70
2018-08-23T04:30:09.153Z,18.80
2018-08-23T04:32:41.947Z,18.80
2018-08-23T04:35:10.545Z,18.90
2018-08-23T04:37:38.674Z,18.90
2018-08-23T04:40:07.291Z,18.90
2018-08-23T04:42:35.945Z,19.00
2018-08-23T04:45:07.331Z,19.10
2018-08-23T04:47:35.394Z,19.10
2018-08-23T04:50:03.452Z,19.20
2018-08-23T04:52:31.638Z,19.30
2018-08-23T04:54:59.686Z,19.30
2018-08-23T04:57:27.745Z,19.40
2018-08-23T04:59:55.783Z,19.40
2018-08-23T05:02:23.866Z,19.40
2018-08-23T05:04:51.969Z,19.50
2018-08-23T05:07:20.116Z,19.50
2018-08-23T05:09:48.274Z,19.50
2018-08-23T05:12:16.301Z,19.60
2018-08-23T05:14:44.374Z,19.70
2018-08-23T05:17:12.413Z,19.70
2018-08-23T05:19:40.521Z,19.80
2018-08-23T05:22:08.571Z,19.90
2018-08-23T05:24:36.659Z,20.00
2018-08-23T05:27:05.172Z,20.00
2018-08-23T05:29:33.229Z,20.20
2018-08-23T05:32:01.281Z,20.20
2018-08-23T05:34:29.352Z,20.30
2018-08-23T05:36:57.421Z,20.40
2018-08-23T05:39:28.512Z,20.40
2018-08-23T05:41:56.623Z,20.40
2018-08-23T05:44:24.685Z,20.50
2018-08-23T05:46:56.094Z,20.60
2018-08-23T05:49:24.612Z,20.60
2018-08-23T05:51:55.122Z,20.70
2018-08-23T05:54:23.192Z,20.80
2018-08-23T05:56:51.291Z,20.80
2018-08-23T05:59:19.356Z,20.90
2018-08-23T06:01:48.002Z,20.90
2018-08-23T06:04:16.593Z,21.10
2018-08-23T06:06:44.633Z,21.20
2018-08-23T06:09:15.804Z,21.30
2018-08-23T06:11:44.660Z,21.40
2018-08-23T06:14:13.215Z,21.50
2018-08-23T06:16:49.756Z,21.50
2018-08-23T06:19:17.814Z,21.50
2018-08-23T06:21:45.854Z,21.60
2018-08-23T06:24:13.973Z,21.70
2018-08-23T06:26:46.335Z,21.80
2018-08-23T06:29:15.150Z,21.70
2018-08-23T06:31:45.367Z,21.80
2018-08-23T06:34:13.436Z,21.90
2018-08-23T06:36:43.950Z,22.00
2018-08-23T06:39:12.021Z,22.10
2018-08-23T06:41:40.063Z,22.20
2018-08-23T06:44:08.127Z,22.30
2018-08-23T06:46:36.175Z,22.40
2018-08-23T06:49:04.320Z,22.50
2018-08-23T06:51:32.374Z,22.60
2018-08-23T06:54:01.697Z,22.70
2018-08-23T06:56:30.190Z,22.80
2018-08-23T06:58:58.311Z,23.00
2018-08-23T07:01:33.269Z,23.10
2018-08-23T07:04:06.485Z,23.30
2018-08-23T07:06:35.069Z,23.40
2018-08-23T07:09:05.182Z,23.50
2018-08-23T07:11:33.261Z,23.70
2018-08-23T07:14:07.129Z,23.80
2018-08-23T07:16:35.251Z,23.90
2018-08-23T07:19:03.429Z,24.00
2018-08-23T07:21:31.536Z,24.00
2018-08-23T07:23:59.591Z,24.00
2018-08-23T07:26:27.654Z,24.10
2018-08-23T07:28:55.782Z,24.10
2018-08-23T07:31:24.060Z,24.20
2018-08-23T07:33:52.353Z,24.20
2018-08-23T07:36:23.111Z,24.30
2018-08-23T07:38:51.167Z,24.40
2018-08-23T07:41:19.264Z,24.50
2018-08-23T07:43:47.412Z,24.60
2018-08-23T07:46:15.445Z,24.70
2018-08-23T07:48:43.535Z,24.90
2018-08-23T07:51:17.255Z,25.10
2018-08-23T07:53:45.309Z,25.10
2018-08-23T07:56:15.965Z,25.20
2018-08-23T07:58:44.029Z,25.30
2018-08-23T08:01:12.097Z,25.50
2018-08-23T08:03:40.162Z,25.70
2018-08-23T08:06:08.198Z,25.80
2018-08-23T08:08:37.054Z,26.00
2018-08-23T08:11:05.219Z,26.00
2018-08-23T08:13:33.369Z,26.20
2018-08-23T08:16:07.132Z,26.30
2018-08-23T08:18:35.219Z,26.40
2018-08-23T08:21:04.041Z,26.50
2018-08-23T08:23:32.790Z,26.70
2018-08-23T08:26:00.835Z,26.70
2018-08-23T08:28:28.894Z,26.70
2018-08-23T08:30:57.400Z,26.90
2018-08-23T08:33:25.740Z,27.00
2018-08-23T08:36:00.024Z,27.20
2018-08-23T08:38:28.176Z,27.30
2018-08-23T08:40:56.256Z,27.40
2018-08-23T08:43:24.886Z,27.50
2018-08-23T08:45:55.118Z,27.70
2018-08-23T08:48:27.623Z,27.70
2018-08-23T08:51:07.001Z,27.80
2018-08-23T08:53:35.536Z,27.90
2018-08-23T08:56:03.576Z,28.00
2018-08-23T08:58:31.684Z,28.10
2018-08-23T09:00:59.697Z,28.20
2018-08-23T09:03:32.147Z,28.30
2018-08-23T09:06:00.400Z,28.40
2018-08-23T09:08:28.453Z,28.60
2018-08-23T09:10:56.543Z,28.70
2018-08-23T09:13:30.183Z,28.80
2018-08-23T09:15:59.891Z,28.80
2018-08-23T09:18:27.938Z,29.00
2018-08-23T09:20:56.132Z,29.20
2018-08-23T09:23:24.281Z,29.40
2018-08-23T09:25:55.534Z,29.50
2018-08-23T09:28:23.589Z,29.60
2018-08-23T09:30:51.755Z,29.60
2018-08-23T09:33:23.609Z,29.70
2018-08-23T09:35:51.823Z,29.70
2018-08-23T09:38:19.966Z,29.90
2018-08-23T09:40:48.275Z,30.10
2018-08-23T09:43:16.413Z,30.20
2018-08-23T09:45:44.487Z,30.30
2018-08-23T09:48:12.987Z,30.30
2018-08-23T09:50:41.088Z,30.50
2018-08-23T09:53:14.637Z,30.50
2018-08-23T09:55:44.613Z,30.50
2018-08-23T09:58:18.575Z,30.70
2018-08-23T10:00:52.217Z,30.80
2018-08-23T10:03:25.817Z,30.80
2018-08-23T10:05:59.420Z,30.80
2018-08-23T10:08:33.022Z,30.80
2018-08-23T10:11:06.857Z,30.80
2018-08-23T10:13:40.431Z,30.80
2018-08-23T10:16:14.042Z,30.90
2018-08-23T10:25:49.931Z,31.20
2018-08-23T10:28:19.201Z,31.30
2018-08-23T10:30:47.702Z,31.50
2018-08-23T10:33:15.888Z,31.70
2018-08-23T10:35:49.417Z,31.80
2018-08-23T10:38:18.800Z,32.00
2018-08-23T10:40:48.087Z,32.00
2018-08-23T10:43:16.659Z,32.00
2018-08-23T10:45:44.861Z,32.10
2018-08-23T10:48:16.285Z,32.10
2018-08-23T10:50:45.338Z,32.20
2018-08-23T10:53:13.891Z,32.30
2018-08-23T10:55:42.347Z,32.40
2018-08-23T10:58:10.452Z,32.50
2018-08-23T11:00:38.511Z,32.50
2018-08-23T11:03:06.583Z,32.60
2018-08-23T11:05:34.667Z,32.70
2018-08-23T11:08:08.362Z,32.80
2018-08-23T11:10:41.936Z,32.80
2018-08-23T11:13:15.533Z,32.90
2018-08-23T11:15:43.675Z,32.90
2018-08-23T11:18:17.241Z,32.90
2018-08-23T11:20:46.586Z,33.10
2018-08-23T11:23:17.834Z,33.20
2018-08-23T11:25:45.981Z,33.30
2018-08-23T11:28:20.090Z,33.40
2018-08-23T11:30:48.154Z,33.60
2018-08-23T11:33:16.219Z,33.70
2018-08-23T11:35:46.038Z,33.70
2018-08-23T11:38:14.215Z,33.90
2018-08-23T11:40:42.277Z,33.90
2018-08-23T11:43:10.349Z,34.10
2018-08-23T11:45:38.444Z,34.10
2018-08-23T11:48:06.486Z,34.30
2018-08-23T11:50:34.567Z,34.30
2018-08-23T11:53:02.649Z,34.50
2018-08-23T11:55:30.739Z,34.60
2018-08-23T11:57:58.918Z,34.50
2018-08-23T12:00:26.874Z,34.70
2018-08-23T12:02:54.925Z,34.70
2018-08-23T12:05:23.071Z,34.60
2018-08-23T12:07:52.498Z,34.70
2018-08-23T12:10:21.636Z,34.90
2018-08-23T12:12:51.438Z,35.00
2018-08-23T12:15:23.122Z,35.20
2018-08-23T12:17:51.639Z,35.50
2018-08-23T12:20:19.952Z,35.50
2018-08-23T12:22:48.112Z,35.60
2018-08-23T12:25:16.242Z,35.60
2018-08-23T12:27:50.063Z,35.80
2018-08-23T12:30:18.085Z,35.80
2018-08-23T12:32:46.425Z,35.90
2018-08-23T12:35:14.506Z,36.10
2018-08-23T12:37:48.330Z,36.20
2018-08-23T12:40:22.034Z,36.40
2018-08-23T12:42:51.301Z,36.60
2018-08-23T12:45:19.351Z,36.80
2018-08-23T12:47:47.440Z,37.10
2018-08-23T12:50:15.474Z,37.40
2018-08-23T12:52:43.509Z,38.30
2018-08-23T12:55:11.601Z,38.40
2018-08-23T12:57:39.690Z,38.10
2018-08-23T13:00:07.763Z,38.40
2018-08-23T13:02:35.939Z,39.00
2018-08-23T13:05:03.924Z,38.80
2018-08-23T13:07:31.979Z,38.20
2018-08-23T13:10:00.058Z,39.00
2018-08-23T13:12:28.227Z,40.20
2018-08-23T13:14:56.347Z,40.50
2018-08-23T13:17:24.540Z,40.00
2018-08-23T13:19:52.553Z,40.20
2018-08-23T13:22:26.175Z,40.00
2018-08-23T13:24:59.685Z,40.90
2018-08-23T13:27:30.130Z,42.30
2018-08-23T13:29:58.325Z,42.70
2018-08-23T13:32:26.341Z,43.90
2018-08-23T13:34:54.658Z,45.40
2018-08-23T13:37:22.901Z,46.30
2018-08-23T13:39:50.971Z,46.60
2018-08-23T13:42:19.361Z,46.10
2018-08-23T13:44:47.554Z,46.40
2018-08-23T13:47:15.712Z,46.10
2018-08-23T13:49:43.806Z,45.20
2018-08-23T13:52:12.179Z,44.40
2018-08-23T13:54:40.334Z,44.00
2018-08-23T13:57:08.406Z,43.30
2018-08-23T13:59:36.694Z,42.30
2018-08-23T14:02:04.760Z,42.40
2018-08-23T14:04:32.825Z,42.70
2018-08-23T14:07:00.883Z,42.10
2018-08-23T14:09:28.946Z,41.00
2018-08-23T14:11:56.997Z,40.50
2018-08-23T14:14:25.118Z,40.20
2018-08-23T14:16:53.110Z,41.10
2018-08-23T14:19:21.272Z,41.80
2018-08-23T14:21:49.305Z,42.60
2018-08-23T14:24:18.126Z,44.00
2018-08-23T14:26:46.162Z,44.60
2018-08-23T14:29:14.471Z,44.80
2018-08-23T14:31:42.509Z,45.00
2018-08-23T14:34:10.582Z,45.30
2018-08-23T14:36:38.694Z,45.70
2018-08-23T14:39:07.504Z,46.40
2018-08-23T14:41:35.867Z,45.80
2018-08-23T14:44:03.959Z,44.30
2018-08-23T14:46:37.599Z,43.50
2018-08-23T14:49:05.709Z,43.40
2018-08-23T14:51:33.761Z,43.70
2018-08-23T14:54:01.797Z,44.60
2018-08-23T14:56:35.387Z,45.60
2018-08-23T14:59:03.446Z,44.10
2018-08-23T15:01:31.685Z,42.80
2018-08-23T15:03:59.728Z,42.30
2018-08-23T15:06:27.852Z,42.90
2018-08-23T15:08:55.901Z,42.60
2018-08-23T15:11:23.966Z,42.20
2018-08-23T15:13:52.016Z,41.60
2018-08-23T15:16:20.110Z,41.20
2018-08-23T15:18:48.153Z,40.90
2018-08-23T15:21:16.287Z,40.50
2018-08-23T15:23:44.334Z,39.80
2018-08-23T15:26:12.466Z,40.40
2018-08-23T15:28:40.462Z,40.30
2018-08-23T15:31:08.551Z,40.50
2018-08-23T15:33:36.607Z,41.50
2018-08-23T15:36:04.708Z,43.40
2018-08-23T15:38:32.758Z,43.70
2018-08-23T15:41:00.870Z,44.60
2018-08-23T15:43:28.962Z,45.10
2018-08-23T15:45:57.108Z,45.40
2018-08-23T15:48:25.187Z,45.40
2018-08-23T15:50:53.262Z,45.50
2018-08-23T15:53:22.052Z,46.70
2018-08-23T15:55:50.228Z,45.70
2018-08-23T15:58:18.261Z,45.80
2018-08-23T16:00:46.337Z,46.10
2018-08-23T16:03:14.419Z,46.30
2018-08-23T16:05:42.585Z,46.80
2018-08-23T16:08:10.884Z,46.30
2018-08-23T16:10:38.934Z,44.80
2018-08-23T16:13:07.006Z,44.30
2018-08-23T16:15:35.133Z,44.20
2018-08-23T16:18:08.587Z,44.20
2018-08-23T16:20:42.344Z,44.00
2018-08-23T16:23:10.642Z,44.20
2018-08-23T16:25:43.999Z,44.00
2018-08-23T16:28:12.252Z,43.50
2018-08-23T16:30:41.597Z,43.30
2018-08-23T16:33:10.055Z,42.70
2018-08-23T16:35:38.154Z,41.60
2018-08-23T16:38:06.253Z,40.60
2018-08-23T16:40:34.331Z,39.10
2018-08-23T16:43:03.693Z,38.40
2018-08-23T16:45:31.750Z,37.80
2018-08-23T16:47:59.838Z,37.30
2018-08-23T16:50:28.725Z,37.30
2018-08-23T16:52:56.845Z,37.60
2018-08-23T16:55:24.929Z,37.90
2018-08-23T16:57:53.129Z,37.90
2018-08-23T17:00:21.158Z,37.70
2018-08-23T17:02:49.307Z,37.30
2018-08-23T17:05:17.381Z,37.00
2018-08-23T17:07:45.479Z,36.50
2018-08-23T17:10:13.627Z,36.50
2018-08-23T17:12:41.749Z,35.90
2018-08-23T17:15:14.041Z,35.50
2018-08-23T17:17:44.801Z,34.90
2018-08-23T17:20:12.914Z,35.00
2018-08-23T17:22:41.094Z,35.20
2018-08-23T17:25:09.201Z,35.60
2018-08-23T17:27:37.329Z,35.80
2018-08-23T17:30:05.556Z,35.80
2018-08-23T17:32:33.719Z,35.50
2018-08-23T17:35:01.792Z,35.20
2018-08-23T17:37:29.888Z,34.90
2018-08-23T17:39:58.012Z,34.50
2018-08-23T17:42:31.842Z,34.30
2018-08-23T17:45:00.182Z,34.10
2018-08-23T17:47:28.359Z,33.80
2018-08-23T17:49:56.548Z,33.70
2018-08-23T17:52:24.565Z,33.60
2018-08-23T17:54:52.712Z,33.40
2018-08-23T17:57:20.894Z,33.20
2018-08-23T17:59:49.126Z,32.90
2018-08-23T18:02:17.257Z,32.80
2018-08-23T18:04:45.307Z,32.60
2018-08-23T18:07:13.453Z,32.40
2018-08-23T18:09:41.476Z,32.10
2018-08-23T18:12:09.528Z,31.50
2018-08-23T18:14:38.309Z,31.10
2018-08-23T18:17:06.366Z,30.70
2018-08-23T18:19:34.425Z,30.30
2018-08-23T18:22:02.619Z,30.00
2018-08-23T18:24:30.727Z,29.70
2018-08-23T18:26:58.799Z,29.40
2018-08-23T18:29:26.952Z,29.20
2018-08-23T18:31:55.022Z,29.10
2018-08-23T18:34:23.034Z,29.00
2018-08-23T18:36:51.071Z,28.90
2018-08-23T18:39:19.144Z,28.80
2018-08-23T18:41:47.194Z,28.70
2018-08-23T18:44:15.315Z,28.60
2018-08-23T18:46:43.454Z,28.50
2018-08-23T18:49:11.532Z,28.50
2018-08-23T18:51:40.123Z,28.50
2018-08-23T18:54:08.288Z,28.50
2018-08-23T18:56:36.253Z,28.40
2018-08-23T18:59:04.826Z,28.30
2018-08-23T19:01:32.878Z,28.20
2018-08-23T19:04:01.021Z,28.20
2018-08-23T19:06:34.034Z,28.00
2018-08-23T19:09:02.570Z,27.90
2018-08-23T19:11:30.613Z,27.60
2018-08-23T19:13:58.727Z,27.10
2018-08-23T19:16:32.549Z,26.50
2018-08-23T19:19:00.845Z,25.90
2018-08-23T19:21:28.974Z,25.40
2018-08-23T19:23:57.111Z,25.00
2018-08-23T19:26:25.162Z,24.60
2018-08-23T19:28:53.379Z,24.40
2018-08-23T19:31:21.493Z,24.20
2018-08-23T19:33:50.629Z,24.20
2018-08-23T19:36:18.702Z,24.20
2018-08-23T19:38:46.783Z,24.30
2018-08-23T19:41:15.248Z,24.40
2018-08-23T19:43:43.341Z,24.50
2018-08-23T19:46:16.849Z,24.60
2018-08-23T19:48:46.248Z,24.80
2018-08-23T19:51:14.321Z,24.90
2018-08-23T19:53:42.621Z,25.00
2018-08-23T19:56:10.703Z,25.20
2018-08-23T19:58:38.945Z,25.30
2018-08-23T20:01:07.042Z,25.30
2018-08-23T20:03:35.214Z,25.40
2018-08-23T20:06:03.276Z,25.40
2018-08-23T20:08:31.339Z,25.50
2018-08-23T20:10:59.432Z,25.60
2018-08-23T20:13:27.506Z,25.60
2018-08-23T20:15:55.563Z,25.70
2018-08-23T20:18:23.798Z,25.70
2018-08-23T20:20:52.072Z,25.80
2018-08-23T20:23:20.317Z,25.80
2018-08-23T20:25:48.511Z,25.70
2018-08-23T20:28:16.558Z,25.80
2018-08-23T20:30:44.702Z,25.80
2018-08-23T20:33:12.950Z,25.80
2018-08-23T20:35:41.663Z,25.80
2018-08-23T20:38:09.921Z,25.90
2018-08-23T20:40:38.241Z,25.90
2018-08-23T20:43:06.936Z,25.90
2018-08-23T20:45:35.514Z,25.80
2018-08-23T20:48:03.938Z,25.80
2018-08-23T20:50:32.285Z,25.80
2018-08-23T20:53:00.878Z,25.80
2018-08-23T20:55:29.075Z,25.80
2018-08-23T20:57:57.134Z,25.80
2018-08-23T21:00:25.329Z,25.70
2018-08-23T21:02:53.361Z,25.70
2018-08-23T21:05:21.467Z,25.70
2018-08-23T21:07:49.802Z,25.60
2018-08-23T21:10:18.084Z,25.70
2018-08-23T21:12:46.185Z,25.70
2018-08-23T21:15:14.817Z,25.60
2018-08-23T21:17:42.862Z,25.60
2018-08-23T21:20:11.042Z,25.40
2018-08-23T21:22:39.185Z,25.30
2018-08-23T21:25:07.292Z,25.20
2018-08-23T21:27:35.412Z,25.20
2018-08-23T21:30:03.762Z,25.20
2018-08-23T21:32:31.814Z,25.30
2018-08-23T21:34:59.932Z,25.10
2018-08-23T21:37:27.972Z,25.10
2018-08-23T21:39:56.030Z,25.10
2018-08-23T21:42:24.174Z,25.10
2018-08-23T21:44:52.263Z,25.20
2018-08-23T21:47:20.304Z,25.20
2018-08-23T21:49:48.392Z,25.10
2018-08-23T21:52:16.577Z,25.10
2018-08-23T21:54:44.761Z,25.10
2018-08-23T21:57:12.920Z,25.10
2018-08-23T21:59:41.350Z,25.10
2018-08-23T22:02:16.002Z,25.20
2018-08-23T22:04:49.679Z,25.10
2018-08-23T22:07:18.012Z,25.00
2018-08-23T22:09:52.191Z,24.90
2018-08-23T22:12:26.818Z,24.90
2018-08-23T22:14:55.613Z,24.90
2018-08-23T22:17:24.003Z,24.80
2018-08-23T22:19:52.779Z,24.80
2018-08-23T22:22:20.829Z,24.70
2018-08-23T22:24:48.906Z,24.70
2018-08-23T22:27:17.084Z,24.70
2018-08-23T22:29:45.139Z,24.60
2018-08-23T22:32:13.219Z,24.70
2018-08-23T22:34:41.271Z,24.60
2018-08-23T22:37:09.341Z,24.60
2018-08-23T22:39:37.441Z,24.60
2018-08-23T22:42:05.515Z,24.60
2018-08-23T22:44:33.558Z,24.50
2018-08-23T22:47:01.630Z,24.40
2018-08-23T22:49:29.729Z,24.30
2018-08-23T22:51:57.771Z,24.20
2018-08-23T22:54:25.865Z,24.20
2018-08-23T22:56:53.925Z,24.30
2018-08-23T22:59:21.994Z,24.30
2018-08-23T23:01:50.067Z,24.30
2018-08-23T23:04:23.661Z,24.20
2018-08-23T23:06:51.742Z,24.20
2018-08-23T23:09:19.834Z,24.10
2018-08-23T23:11:48.109Z,24.10
2018-08-23T23:14:16.169Z,24.00
2018-08-23T23:16:44.222Z,24.00
2018-08-23T23:19:12.299Z,24.00
2018-08-23T23:21:40.353Z,23.90
2018-08-23T23:24:13.926Z,23.90
2018-08-23T23:26:41.972Z,23.80
2018-08-23T23:29:10.051Z,23.80
2018-08-23T23:31:38.125Z,23.70
2018-08-23T23:34:06.266Z,23.70
2018-08-23T23:36:34.349Z,23.60
2018-08-23T23:39:02.517Z,23.60
2018-08-23T23:41:30.569Z,23.60
2018-08-23T23:43:58.665Z,23.60
2018-08-23T23:46:26.762Z,23.60
2018-08-23T23:48:54.839Z,23.50
2018-08-23T23:51:22.911Z,23.50
2018-08-23T23:53:50.958Z,23.40
2018-08-23T23:56:19.139Z,23.40
2018-08-23T23:58:47.102Z,23.40
